createdAt,value
2023-04-14T00:01:04.068Z,11.70
2023-04-14T00:03:33.705Z,11.80
2023-04-14T00:06:02.096Z,10.37
2023-04-14T00:08:30.661Z,10.90
2023-04-14T00:10:59.327Z,10.43
2023-04-14T00:13:27.968Z,10.20
2023-04-14T00:15:57.020Z,11.57
2023-04-14T00:18:25.671Z,10.23
2023-04-14T00:20:57.777Z,12.43
2023-04-14T00:23:26.502Z,9.80
2023-04-14T00:25:54.617Z,11.33
2023-04-14T00:28:22.797Z,11.37
2023-04-14T00:30:51.040Z,10.77
2023-04-14T00:33:19.196Z,16.67
2023-04-14T00:35:47.629Z,10.13
2023-04-14T00:38:17.327Z,13.53
2023-04-14T00:40:45.655Z,17.70
2023-04-14T00:43:13.856Z,12.13
2023-04-14T00:45:46.480Z,15.27
2023-04-14T00:48:15.809Z,13.90
2023-04-14T00:50:44.475Z,12.47
2023-04-14T00:53:14.137Z,13.10
2023-04-14T00:55:44.362Z,11.97
2023-04-14T00:58:13.006Z,12.77
2023-04-14T01:00:41.167Z,11.20
2023-04-14T01:03:09.756Z,12.50
2023-04-14T01:05:37.996Z,12.10
2023-04-14T01:08:06.603Z,12.27
2023-04-14T01:10:42.566Z,12.13
2023-04-14T01:13:23.558Z,12.70
2023-04-14T01:15:55.668Z,11.60
2023-04-14T01:18:30.545Z,12.37
2023-04-14T01:21:04.516Z,12.23
2023-04-14T01:23:39.078Z,12.57
2023-04-14T01:26:30.389Z,13.10
2023-04-14T01:29:36.257Z,11.33
2023-04-14T01:32:10.753Z,11.70
2023-04-14T01:34:47.385Z,12.47
2023-04-14T01:37:18.277Z,12.37
2023-04-14T01:39:51.474Z,12.97
2023-04-14T01:42:24.604Z,12.10
2023-04-14T01:44:58.546Z,12.33
2023-04-14T01:47:30.984Z,12.37
2023-04-14T01:50:02.590Z,11.77
2023-04-14T01:52:32.935Z,10.80
2023-04-14T01:55:05.871Z,13.97
2023-04-14T01:57:37.395Z,13.63
2023-04-14T02:00:08.768Z,12.37
2023-04-14T02:02:41.595Z,13.37
2023-04-14T02:05:11.799Z,12.73
2023-04-14T02:07:41.724Z,11.73
2023-04-14T02:10:11.763Z,13.57
2023-04-14T02:12:43.351Z,12.70
2023-04-14T02:15:16.184Z,12.83
2023-04-14T02:17:49.961Z,13.37
2023-04-14T02:20:18.696Z,13.80
2023-04-14T02:22:47.159Z,13.27
2023-04-14T02:25:15.607Z,13.57
2023-04-14T02:27:50.303Z,13.37
2023-04-14T02:30:21.816Z,13.13
2023-04-14T02:32:58.224Z,14.10
2023-04-14T02:35:30.071Z,11.57
2023-04-14T02:38:08.427Z,12.23
2023-04-14T02:40:40.056Z,12.80
2023-04-14T02:43:13.943Z,11.77
2023-04-14T02:45:44.055Z,11.93
2023-04-14T02:48:17.066Z,12.77
2023-04-14T02:50:48.750Z,14.53
2023-04-14T02:53:21.970Z,11.13
2023-04-14T02:55:52.178Z,11.90
2023-04-14T02:58:21.563Z,11.30
2023-04-14T03:00:52.126Z,13.23
2023-04-14T03:03:22.194Z,11.93
2023-04-14T03:05:50.729Z,12.13
2023-04-14T03:08:20.608Z,13.67
2023-04-14T03:10:52.971Z,12.80
2023-04-14T03:13:23.640Z,12.73
2023-04-14T03:15:54.157Z,14.40
2023-04-14T03:18:24.374Z,16.37
2023-04-14T03:20:55.928Z,12.10
2023-04-14T03:23:27.014Z,12.93
2023-04-14T03:25:58.308Z,16.13
2023-04-14T03:28:29.488Z,13.43
2023-04-14T03:31:01.410Z,14.17
2023-04-14T03:33:33.928Z,13.50
2023-04-14T03:36:03.120Z,14.87
2023-04-14T03:38:34.567Z,13.23
2023-04-14T03:41:05.625Z,15.47
2023-04-14T03:43:36.050Z,15.13
2023-04-14T03:46:06.378Z,15.67
2023-04-14T03:48:42.989Z,15.77
2023-04-14T03:51:14.415Z,16.93
2023-04-14T03:53:44.540Z,13.67
2023-04-14T03:56:16.824Z,15.97
2023-04-14T03:58:49.557Z,16.57
2023-04-14T04:01:19.552Z,15.50
2023-04-14T04:03:50.031Z,13.30
2023-04-14T04:06:19.057Z,16.43
2023-04-14T04:08:49.190Z,22.27
2023-04-14T04:11:20.960Z,17.30
2023-04-14T04:13:50.412Z,17.47
2023-04-14T04:16:20.571Z,16.50
2023-04-14T04:18:51.608Z,16.73
2023-04-14T04:21:21.543Z,16.90
2023-04-14T04:23:54.688Z,16.20
2023-04-14T04:26:23.892Z,17.93
2023-04-14T04:28:53.720Z,18.43
2023-04-14T04:31:23.985Z,17.67
2023-04-14T04:33:54.742Z,16.30
2023-04-14T04:36:23.471Z,17.93
2023-04-14T04:38:51.987Z,19.43
2023-04-14T04:41:24.032Z,15.93
2023-04-14T04:43:52.738Z,22.07
2023-04-14T04:46:44.340Z,17.90
2023-04-14T04:49:15.781Z,16.10
2023-04-14T04:51:44.807Z,19.93
2023-04-14T04:54:13.481Z,18.97
2023-04-14T04:56:41.836Z,18.37
2023-04-14T04:59:11.359Z,18.30
2023-04-14T05:01:39.720Z,17.30
2023-04-14T05:04:08.433Z,18.53
2023-04-14T05:06:38.699Z,16.53
2023-04-14T05:09:07.582Z,18.67
2023-04-14T05:11:37.072Z,16.60
2023-04-14T05:14:05.690Z,17.27
2023-04-14T05:16:33.930Z,16.87
2023-04-14T05:19:03.275Z,17.77
2023-04-14T05:21:31.802Z,17.33
2023-04-14T05:24:01.706Z,20.20
2023-04-14T05:26:52.003Z,19.00
2023-04-14T05:29:21.003Z,18.93
2023-04-14T05:31:49.909Z,17.77
2023-04-14T05:34:18.520Z,20.10
2023-04-14T05:36:48.627Z,18.77
2023-04-14T05:39:18.450Z,20.53
2023-04-14T05:41:47.175Z,19.37
2023-04-14T05:44:16.870Z,21.30
2023-04-14T05:46:47.064Z,21.83
2023-04-14T05:49:15.264Z,18.77
2023-04-14T05:51:45.587Z,22.43
2023-04-14T05:54:13.832Z,21.03
2023-04-14T05:56:43.453Z,22.73
2023-04-14T05:59:11.811Z,20.73
2023-04-14T06:01:40.394Z,22.77
2023-04-14T06:04:09.336Z,20.27
2023-04-14T06:06:38.176Z,21.97
2023-04-14T06:09:06.369Z,19.70
2023-04-14T06:11:34.559Z,19.53
2023-04-14T06:14:05.540Z,21.57
2023-04-14T06:16:33.859Z,22.10
2023-04-14T06:19:04.686Z,20.83
2023-04-14T06:21:32.903Z,22.30
2023-04-14T06:24:01.626Z,21.40
2023-04-14T06:26:32.547Z,22.27
2023-04-14T06:29:07.701Z,20.83
2023-04-14T06:31:36.255Z,23.63
2023-04-14T06:34:04.387Z,23.43
2023-04-14T06:36:33.114Z,22.70
2023-04-14T06:39:02.532Z,21.10
2023-04-14T06:41:31.288Z,21.10
2023-04-14T06:43:59.897Z,20.27
2023-04-14T06:46:30.305Z,21.33
2023-04-14T06:48:58.534Z,22.97
2023-04-14T06:51:27.252Z,25.57
2023-04-14T06:53:55.676Z,21.07
2023-04-14T06:56:23.991Z,19.40
2023-04-14T06:58:52.420Z,20.13
2023-04-14T07:01:20.944Z,20.30
2023-04-14T07:03:50.599Z,21.47
2023-04-14T07:06:20.203Z,19.40
2023-04-14T07:08:48.388Z,17.07
2023-04-14T07:11:16.409Z,16.80
2023-04-14T07:13:44.923Z,20.27
2023-04-14T07:16:13.412Z,17.47
2023-04-14T07:18:41.732Z,19.30
2023-04-14T07:21:12.127Z,17.50
2023-04-14T07:23:40.495Z,17.33
2023-04-14T07:26:08.584Z,15.97
2023-04-14T07:28:37.376Z,17.40
2023-04-14T07:31:10.076Z,13.53
2023-04-14T07:33:38.578Z,14.07
2023-04-14T07:36:08.113Z,14.17
2023-04-14T07:38:37.894Z,15.83
2023-04-14T07:41:07.951Z,21.27
2023-04-14T07:43:36.445Z,19.00
2023-04-14T07:46:05.782Z,15.20
2023-04-14T07:48:37.213Z,14.43
2023-04-14T07:51:07.002Z,12.67
2023-04-14T07:53:43.190Z,14.57
2023-04-14T07:56:13.216Z,15.60
2023-04-14T07:58:41.348Z,13.20
2023-04-14T08:01:09.842Z,13.40
2023-04-14T08:03:38.705Z,14.43
2023-04-14T08:06:11.011Z,15.33
2023-04-14T08:08:40.992Z,21.00
2023-04-14T08:11:09.129Z,19.37
2023-04-14T08:13:38.749Z,22.73
2023-04-14T08:16:07.151Z,20.57
2023-04-14T08:18:35.679Z,20.87
2023-04-14T08:21:03.879Z,22.30
2023-04-14T08:23:32.287Z,26.40
2023-04-14T08:26:00.506Z,21.40
2023-04-14T08:28:29.609Z,20.90
2023-04-14T08:31:00.058Z,23.00
2023-04-14T08:33:31.373Z,21.30
2023-04-14T08:36:00.589Z,22.03
2023-04-14T08:38:29.594Z,19.53
2023-04-14T08:41:00.476Z,22.53
2023-04-14T08:43:28.884Z,18.77
2023-04-14T08:46:03.427Z,9.97
2023-04-14T08:48:33.039Z,10.77
2023-04-14T08:51:08.853Z,12.03
2023-04-14T08:53:45.366Z,10.17
2023-04-14T08:56:17.880Z,10.37
2023-04-14T08:58:47.350Z,8.70
2023-04-14T09:01:17.485Z,9.50
2023-04-14T09:03:46.429Z,7.83
2023-04-14T09:06:15.876Z,9.57
2023-04-14T09:08:45.030Z,8.53
2023-04-14T09:11:14.633Z,14.97
2023-04-14T09:13:45.521Z,8.80
2023-04-14T09:16:15.507Z,17.53
2023-04-14T09:18:47.358Z,13.00
2023-04-14T09:21:29.613Z,9.90
2023-04-14T09:24:07.969Z,7.07
2023-04-14T09:26:37.791Z,6.83
2023-04-14T09:29:06.323Z,9.83
2023-04-14T09:31:34.943Z,8.77
2023-04-14T09:34:05.399Z,8.03
2023-04-14T09:36:33.671Z,11.33
2023-04-14T09:39:02.620Z,7.40
2023-04-14T09:41:31.776Z,19.23
2023-04-14T09:44:10.824Z,12.43
2023-04-14T09:46:39.002Z,6.53
2023-04-14T09:49:09.054Z,9.07
2023-04-14T09:51:51.846Z,7.40
2023-04-14T09:54:25.840Z,8.33
2023-04-14T09:56:57.747Z,8.23
2023-04-14T09:59:34.426Z,6.80
2023-04-14T10:02:06.584Z,9.70
2023-04-14T10:04:36.886Z,13.43
2023-04-14T10:07:08.144Z,10.20
2023-04-14T10:09:38.638Z,9.93
2023-04-14T10:12:12.764Z,10.83
2023-04-14T10:14:41.463Z,7.87
2023-04-14T10:17:10.101Z,15.00
2023-04-14T10:19:39.919Z,11.43
2023-04-14T10:22:08.106Z,13.30
2023-04-14T10:24:37.084Z,12.80
2023-04-14T10:27:06.323Z,10.03
2023-04-14T10:29:36.846Z,11.80
2023-04-14T10:32:08.549Z,11.53
2023-04-14T10:34:41.223Z,16.30
2023-04-14T10:37:15.879Z,10.57
2023-04-14T10:39:44.221Z,17.60
2023-04-14T10:42:12.421Z,13.17
2023-04-14T10:44:40.884Z,9.40
2023-04-14T10:47:09.419Z,10.10
2023-04-14T10:49:39.593Z,12.70
2023-04-14T10:52:28.658Z,15.97
2023-04-14T10:55:01.278Z,12.93
2023-04-14T10:57:30.936Z,11.30
2023-04-14T11:00:00.172Z,14.47
2023-04-14T11:02:32.842Z,13.03
2023-04-14T11:05:04.205Z,12.27
2023-04-14T11:07:33.485Z,13.07
2023-04-14T11:10:27.364Z,14.83
2023-04-14T11:13:02.136Z,12.70
2023-04-14T11:15:50.911Z,15.50
2023-04-14T11:18:22.924Z,13.20
2023-04-14T11:20:54.025Z,17.93
2023-04-14T11:23:28.455Z,17.90
2023-04-14T11:25:58.813Z,11.13
2023-04-14T11:28:30.902Z,13.13
2023-04-14T11:31:00.152Z,14.13
2023-04-14T11:33:30.606Z,11.90
2023-04-14T11:35:59.214Z,13.53
2023-04-14T11:38:28.124Z,13.23
2023-04-14T11:40:57.868Z,12.13
2023-04-14T11:43:26.555Z,14.70
2023-04-14T11:45:54.875Z,11.10
2023-04-14T11:48:23.046Z,10.50
2023-04-14T11:50:52.219Z,15.87
2023-04-14T11:53:21.374Z,11.37
2023-04-14T11:55:51.074Z,8.83
2023-04-14T11:58:25.455Z,10.33
2023-04-14T12:00:56.448Z,7.97
2023-04-14T12:06:18.215Z,9.53
2023-04-14T12:08:50.693Z,13.73
2023-04-14T12:11:18.987Z,9.10
2023-04-14T12:13:49.118Z,11.07
2023-04-14T12:16:18.406Z,12.03
2023-04-14T12:18:46.863Z,10.53
2023-04-14T12:21:20.146Z,9.97
2023-04-14T12:23:49.983Z,8.47
2023-04-14T12:26:18.360Z,8.93
2023-04-14T12:28:47.314Z,7.93
2023-04-14T12:31:27.835Z,11.23
2023-04-14T12:34:02.159Z,12.50
2023-04-14T12:36:47.971Z,7.87
2023-04-14T12:39:16.971Z,14.93
2023-04-14T12:41:45.714Z,10.10
2023-04-14T12:44:18.584Z,9.77
2023-04-14T12:46:56.686Z,9.50
2023-04-14T12:49:36.560Z,8.17
2023-04-14T12:52:08.045Z,8.67
2023-04-14T12:54:52.383Z,7.17
2023-04-14T12:57:35.350Z,7.30
2023-04-14T13:00:10.548Z,10.63
2023-04-14T13:02:47.044Z,12.47
2023-04-14T13:05:21.984Z,6.67
2023-04-14T13:07:54.200Z,10.57
2023-04-14T13:10:22.488Z,7.63
2023-04-14T13:12:50.927Z,6.60
2023-04-14T13:16:12.931Z,10.20
2023-04-14T13:18:24.203Z,6.53
2023-04-14T13:21:04.516Z,8.77
2023-04-14T13:23:47.768Z,8.77
2023-04-14T13:26:22.413Z,7.03
2023-04-14T13:29:01.252Z,7.83
2023-04-14T13:31:42.885Z,8.97
2023-04-14T13:34:17.890Z,7.00
2023-04-14T13:37:00.282Z,7.30
2023-04-14T13:39:36.004Z,7.93
2023-04-14T13:42:15.191Z,9.70
2023-04-14T13:44:50.851Z,7.37
2023-04-14T13:47:29.300Z,10.57
2023-04-14T13:50:08.868Z,12.37
2023-04-14T13:52:42.414Z,9.87
2023-04-14T13:55:15.780Z,6.90
2023-04-14T13:57:59.735Z,6.20
2023-04-14T14:00:33.570Z,5.43
2023-04-14T14:03:13.706Z,9.40
2023-04-14T14:05:50.691Z,7.20
2023-04-14T14:08:24.690Z,7.30
2023-04-14T14:11:10.342Z,7.40
2023-04-14T14:13:50.220Z,6.33
2023-04-14T14:16:35.964Z,7.90
2023-04-14T14:19:20.853Z,9.37
2023-04-14T14:22:03.308Z,7.17
2023-04-14T14:24:37.888Z,9.03
2023-04-14T14:27:11.192Z,7.93
2023-04-14T14:29:45.060Z,10.87
2023-04-14T14:32:21.563Z,9.63
2023-04-14T14:34:57.638Z,9.97
2023-04-14T14:37:31.550Z,10.80
2023-04-14T14:40:13.195Z,10.70
2023-04-14T14:42:46.580Z,12.90
2023-04-14T14:45:18.998Z,13.07
2023-04-14T14:47:59.091Z,15.60
2023-04-14T14:50:27.428Z,13.80
2023-04-14T14:52:57.426Z,14.23
2023-04-14T14:55:25.760Z,16.60
2023-04-14T14:57:53.923Z,12.97
2023-04-14T15:00:22.545Z,14.13
2023-04-14T15:02:51.039Z,13.07
2023-04-14T15:05:19.728Z,16.37
2023-04-14T15:07:47.830Z,13.77
2023-04-14T15:10:17.751Z,14.83
2023-04-14T15:12:45.980Z,15.87
2023-04-14T15:15:14.236Z,13.60
2023-04-14T15:17:42.374Z,17.53
2023-04-14T15:20:11.900Z,15.97
2023-04-14T15:22:40.086Z,14.90
2023-04-14T15:25:10.174Z,16.43
2023-04-14T15:27:39.793Z,17.43
2023-04-14T15:30:09.182Z,16.37
2023-04-14T15:32:37.469Z,16.03
2023-04-14T15:35:06.152Z,17.50
2023-04-14T15:37:34.706Z,18.50
2023-04-14T15:40:02.946Z,15.67
2023-04-14T15:42:31.123Z,16.00
2023-04-14T15:45:00.697Z,18.27
2023-04-14T15:47:28.761Z,19.50
2023-04-14T15:50:12.997Z,15.57
2023-04-14T15:52:45.498Z,15.17
2023-04-14T15:55:14.187Z,15.17
2023-04-14T15:57:42.417Z,15.00
2023-04-14T16:00:13.399Z,16.90
2023-04-14T16:02:42.201Z,13.90
2023-04-14T16:05:10.973Z,14.47
2023-04-14T16:07:40.024Z,13.27
2023-04-14T16:10:09.068Z,18.50
2023-04-14T16:12:37.777Z,14.47
2023-04-14T16:15:08.968Z,15.37
2023-04-14T16:17:38.818Z,15.53
2023-04-14T16:20:07.741Z,19.40
2023-04-14T16:22:35.954Z,18.40
2023-04-14T16:25:04.777Z,14.93
2023-04-14T16:27:32.892Z,14.03
2023-04-14T16:30:01.160Z,15.50
2023-04-14T16:32:29.901Z,15.20
2023-04-14T16:34:59.748Z,14.87
2023-04-14T16:37:28.567Z,15.47
2023-04-14T16:39:58.046Z,17.67
2023-04-14T16:42:26.954Z,17.40
2023-04-14T16:44:56.158Z,15.77
2023-04-14T16:47:24.712Z,12.73
2023-04-14T16:49:53.044Z,12.60
2023-04-14T16:52:22.504Z,13.27
2023-04-14T16:54:50.609Z,12.47
2023-04-14T16:57:19.014Z,10.03
2023-04-14T16:59:48.201Z,13.90
2023-04-14T17:02:16.572Z,14.80
2023-04-14T17:04:45.264Z,12.07
2023-04-14T17:07:13.561Z,10.90
2023-04-14T17:09:43.227Z,15.20
2023-04-14T17:12:11.483Z,11.03
2023-04-14T17:14:39.737Z,11.70
2023-04-14T17:17:08.300Z,14.50
2023-04-14T17:19:36.464Z,12.67
2023-04-14T17:22:04.508Z,9.93
2023-04-14T17:24:32.805Z,11.63
2023-04-14T17:27:02.509Z,30.77
2023-04-14T17:29:30.779Z,14.80
2023-04-14T17:31:59.327Z,12.67
2023-04-14T17:34:29.352Z,11.73
2023-04-14T17:36:58.862Z,12.67
2023-04-14T17:39:28.530Z,18.67
2023-04-14T17:41:58.095Z,14.33
2023-04-14T17:44:33.419Z,12.20
2023-04-14T17:47:03.271Z,11.37
2023-04-14T17:49:32.542Z,12.83
2023-04-14T17:52:01.423Z,11.87
2023-04-14T17:54:30.620Z,12.83
2023-04-14T17:56:58.661Z,14.13
2023-04-14T17:59:28.429Z,15.33
2023-04-14T18:01:56.665Z,14.33
2023-04-14T18:04:25.621Z,13.70
2023-04-14T18:06:56.749Z,14.07
2023-04-14T18:09:24.987Z,14.33
2023-04-14T18:11:53.302Z,17.80
2023-04-14T18:14:21.694Z,18.03
2023-04-14T18:16:51.478Z,17.50
2023-04-14T18:19:19.663Z,14.70
2023-04-14T18:21:48.400Z,15.37
2023-04-14T18:26:47.564Z,15.70
2023-04-14T18:29:15.864Z,19.23
2023-04-14T18:31:43.868Z,16.37
2023-04-14T18:34:14.036Z,18.07
2023-04-14T18:36:42.632Z,18.17
2023-04-14T18:39:10.724Z,17.30
2023-04-14T18:41:39.446Z,19.00
2023-04-14T18:44:07.748Z,19.70
2023-04-14T18:46:37.806Z,18.70
2023-04-14T18:49:06.110Z,21.73
2023-04-14T18:51:35.704Z,21.00
2023-04-14T18:54:04.019Z,19.03
2023-04-14T18:56:32.637Z,18.07
2023-04-14T18:59:01.000Z,22.27
2023-04-14T19:01:29.783Z,18.20
2023-04-14T19:03:58.220Z,20.23
2023-04-14T19:06:26.717Z,18.97
2023-04-14T19:08:56.843Z,20.43
2023-04-14T19:11:25.480Z,24.43
2023-04-14T19:13:54.272Z,20.33
2023-04-14T19:16:22.754Z,18.07
2023-04-14T19:18:50.864Z,19.17
2023-04-14T19:21:19.117Z,23.07
2023-04-14T19:23:48.686Z,22.07
2023-04-14T19:26:19.509Z,21.50
2023-04-14T19:28:47.782Z,24.93
2023-04-14T19:31:17.403Z,16.70
2023-04-14T19:33:45.768Z,24.93
2023-04-14T19:36:15.111Z,19.60
2023-04-14T19:38:43.423Z,22.03
2023-04-14T19:41:12.147Z,20.67
2023-04-14T19:43:41.789Z,34.63
2023-04-14T19:46:12.794Z,17.50
2023-04-14T19:48:41.011Z,16.07
2023-04-14T19:51:09.384Z,19.27
2023-04-14T19:53:37.683Z,26.17
2023-04-14T19:56:07.360Z,16.93
2023-04-14T19:58:36.560Z,24.00
2023-04-14T20:01:06.225Z,17.80
2023-04-14T20:03:34.800Z,18.87
2023-04-14T20:06:03.336Z,20.97
2023-04-14T20:08:32.346Z,15.70
2023-04-14T20:11:00.758Z,18.20
2023-04-14T20:13:31.398Z,18.57
2023-04-14T20:16:00.273Z,20.90
2023-04-14T20:18:30.075Z,17.43
2023-04-14T20:20:59.081Z,15.90
2023-04-14T20:23:27.994Z,15.93
2023-04-14T20:26:02.522Z,16.27
2023-04-14T20:28:31.531Z,20.50
2023-04-14T20:30:59.718Z,20.27
2023-04-14T20:33:29.709Z,23.37
2023-04-14T20:36:00.069Z,16.97
2023-04-14T20:38:28.346Z,15.70
2023-04-14T20:40:56.671Z,18.83
2023-04-14T20:43:32.632Z,14.50
2023-04-14T20:46:01.507Z,16.63
2023-04-14T20:48:32.303Z,19.97
2023-04-14T20:51:01.846Z,15.23
2023-04-14T20:53:30.206Z,18.90
2023-04-14T20:55:58.321Z,20.83
2023-04-14T20:58:26.574Z,17.40
2023-04-14T21:00:56.758Z,15.03
2023-04-14T21:03:25.455Z,14.67
2023-04-14T21:05:55.471Z,12.03
2023-04-14T21:08:24.798Z,19.20
2023-04-14T21:11:15.869Z,14.77
2023-04-14T21:15:39.724Z,15.17
2023-04-14T21:16:30.047Z,14.23
2023-04-14T21:18:58.452Z,16.23
2023-04-14T21:21:28.048Z,11.33
2023-04-14T21:23:56.212Z,13.80
2023-04-14T21:26:24.636Z,12.57
2023-04-14T21:28:53.053Z,15.50
2023-04-14T21:31:21.259Z,12.10
2023-04-14T21:33:49.380Z,13.10
2023-04-14T21:36:17.457Z,12.50
2023-04-14T21:38:47.473Z,12.47
2023-04-14T21:41:15.996Z,14.50
2023-04-14T21:43:44.114Z,12.00
2023-04-14T21:46:12.313Z,12.17
2023-04-14T21:48:40.562Z,13.73
2023-04-14T21:51:09.091Z,11.67
2023-04-14T21:53:37.543Z,12.67
2023-04-14T21:56:10.019Z,15.73
2023-04-14T21:58:39.560Z,13.30
2023-04-14T22:01:09.644Z,11.20
2023-04-14T22:03:40.615Z,10.30
2023-04-14T22:06:10.096Z,14.83
2023-04-14T22:08:40.401Z,11.93
2023-04-14T22:11:10.376Z,10.77
2023-04-14T22:13:38.602Z,9.83
2023-04-14T22:16:07.568Z,11.57
2023-04-14T22:18:37.272Z,12.60
2023-04-14T22:21:05.773Z,11.23
2023-04-14T22:23:34.205Z,12.03
2023-04-14T22:26:02.703Z,12.77
2023-04-14T22:28:32.165Z,10.50
2023-04-14T22:31:00.354Z,13.33
2023-04-14T22:33:28.767Z,8.83
2023-04-14T22:35:56.952Z,12.80
2023-04-14T22:38:25.238Z,10.30
2023-04-14T22:40:53.421Z,8.80
2023-04-14T22:43:21.634Z,13.67
2023-04-14T22:45:51.247Z,9.93
2023-04-14T22:48:19.695Z,9.80
2023-04-14T22:50:47.749Z,10.33
2023-04-14T22:53:16.481Z,10.90
2023-04-14T22:55:45.389Z,10.33
2023-04-14T22:58:17.080Z,7.90
2023-04-14T23:00:45.677Z,9.43
2023-04-14T23:03:15.650Z,9.37
2023-04-14T23:05:44.834Z,10.23
2023-04-14T23:08:13.121Z,10.37
2023-04-14T23:10:41.706Z,10.07
2023-04-14T23:13:09.929Z,17.53
2023-04-14T23:15:38.195Z,10.80
2023-04-14T23:18:06.719Z,14.40
2023-04-14T23:20:37.037Z,11.30
2023-04-14T23:23:05.896Z,12.03
2023-04-14T23:25:34.137Z,11.53
2023-04-14T23:28:02.430Z,10.33
2023-04-14T23:30:30.780Z,9.70
2023-04-14T23:32:58.965Z,9.43
2023-04-14T23:35:27.075Z,8.87
2023-04-14T23:38:02.385Z,9.93
2023-04-14T23:40:30.791Z,8.33
2023-04-14T23:42:59.300Z,9.10
2023-04-14T23:45:28.049Z,8.87
2023-04-14T23:47:56.721Z,8.63
2023-04-14T23:51:00.510Z,16.07
2023-04-14T23:53:15.747Z,9.67
2023-04-14T23:55:44.794Z,8.47
2023-04-14T23:58:13.131Z,8.80
